Terminal Aerodrome Forecast
Issued by NWS Sioux Falls, SD

Home | Current Version | Previous Version | Text Only | Print | Product List | Glossary Off
Versions: 1 2 3 4 5 6 7 8 9 10 11 12 13

000
FTUS43 KFSD 261120
TAFFSD
TAF
KFSD 261120Z 2612/2712 31006KT P6SM SCT100 BKN200
     FM261500 33011KT P6SM SCT200
     FM270000 30007KT P6SM SKC
     FM271000 VRB03KT P6SM BKN100=

USA.gov is the U.S. government's official web portal to all federal, state and local government web resources and services.